sensor_id;sensor_type;location;lat;lon;timestamp;pressure;altitude;pressure_sealevel;temperature;humidity
39773;BME280;25451;51.960;6.250;2023-08-07T00:02:02;100991.47;;;15.35;87.00
39773;BME280;25451;51.960;6.250;2023-08-07T00:04:28;100993.44;;;15.35;86.62
39773;BME280;25451;51.960;6.250;2023-08-07T00:06:53;100997.88;;;15.36;86.56
39773;BME280;25451;51.960;6.250;2023-08-07T00:09:18;100974.22;;;15.28;86.76
39773;BME280;25451;51.960;6.250;2023-08-07T00:11:44;100981.19;;;15.31;86.76
39773;BME280;25451;51.960;6.250;2023-08-07T00:14:09;100982.31;;;15.35;86.83
39773;BME280;25451;51.960;6.250;2023-08-07T00:16:34;100983.13;;;15.35;86.72
39773;BME280;25451;51.960;6.250;2023-08-07T00:19:00;100970.06;;;15.31;86.65
39773;BME280;25451;51.960;6.250;2023-08-07T00:21:25;100991.78;;;15.39;86.52
39773;BME280;25451;51.960;6.250;2023-08-07T00:23:50;100973.97;;;15.35;86.70
39773;BME280;25451;51.960;6.250;2023-08-07T00:26:16;100984.53;;;15.38;86.75
39773;BME280;25451;51.960;6.250;2023-08-07T00:28:41;100987.59;;;15.36;86.81
39773;BME280;25451;51.960;6.250;2023-08-07T00:31:07;100991.78;;;15.39;86.72
39773;BME280;25451;51.960;6.250;2023-08-07T00:33:32;100979.81;;;15.38;86.78
39773;BME280;25451;51.960;6.250;2023-08-07T00:35:57;100983.97;;;15.36;86.74
39773;BME280;25451;51.960;6.250;2023-08-07T00:38:23;100987.59;;;15.36;86.80
39773;BME280;25451;51.960;6.250;2023-08-07T00:40:48;100988.44;;;15.37;86.77
39773;BME280;25451;51.960;6.250;2023-08-07T00:43:13;100980.06;;;15.32;86.72
39773;BME280;25451;51.960;6.250;2023-08-07T00:45:42;100987.59;;;15.36;86.69
39773;BME280;25451;51.960;6.250;2023-08-07T00:48:08;100986.19;;;15.34;86.77
39773;BME280;25451;51.960;6.250;2023-08-07T00:50:34;100995.09;;;15.36;86.62
39773;BME280;25451;51.960;6.250;2023-08-07T00:52:59;100985.91;;;15.30;86.75
39773;BME280;25451;51.960;6.250;2023-08-07T00:55:25;100978.41;;;15.31;86.67
39773;BME280;25451;51.960;6.250;2023-08-07T00:57:51;100993.13;;;15.31;86.75
39773;BME280;25451;51.960;6.250;2023-08-07T01:00:17;100988.41;;;15.27;86.76
39773;BME280;25451;51.960;6.250;2023-08-07T01:02:42;100999.81;;;15.30;86.82
39773;BME280;25451;51.960;6.250;2023-08-07T01:05:08;100993.69;;;15.28;86.71
39773;BME280;25451;51.960;6.250;2023-08-07T01:07:34;100997.00;;;15.25;86.83
39773;BME280;25451;51.960;6.250;2023-08-07T01:09:59;101000.91;;;15.24;86.76
39773;BME280;25451;51.960;6.250;2023-08-07T01:12:37;101000.34;;;15.22;86.70
39773;BME280;25451;51.960;6.250;2023-08-07T01:15:12;100999.78;;;15.20;86.85
39773;BME280;25451;51.960;6.250;2023-08-07T01:17:39;100997.22;;;15.14;86.97
39773;BME280;25451;51.960;6.250;2023-08-07T01:20:06;101002.50;;;15.15;86.84
39773;BME280;25451;51.960;6.250;2023-08-07T01:22:32;101008.63;;;15.17;87.15
39773;BME280;25451;51.960;6.250;2023-08-07T01:24:57;101010.59;;;15.17;86.95
39773;BME280;25451;51.960;6.250;2023-08-07T01:27:35;101011.13;;;15.14;86.78
39773;BME280;25451;51.960;6.250;2023-08-07T01:33:13;101015.56;;;15.10;86.93
39773;BME280;25451;51.960;6.250;2023-08-07T01:35:44;101016.69;;;15.09;87.04
39773;BME280;25451;51.960;6.250;2023-08-07T01:38:12;101009.97;;;15.05;86.99
39773;BME280;25451;51.960;6.250;2023-08-07T01:40:39;101024.19;;;15.08;86.91
39773;BME280;25451;51.960;6.250;2023-08-07T01:43:05;101021.66;;;15.07;86.98
39773;BME280;25451;51.960;6.250;2023-08-07T01:45:31;101016.63;;;15.04;87.05
39773;BME280;25451;51.960;6.250;2023-08-07T01:47:56;101019.13;;;15.05;86.93
39773;BME280;25451;51.960;6.250;2023-08-07T01:50:23;101025.25;;;15.07;86.93
39773;BME280;25451;51.960;6.250;2023-08-07T01:52:49;101034.16;;;15.09;86.97
39773;BME280;25451;51.960;6.250;2023-08-07T01:55:20;101032.78;;;15.07;86.98
39773;BME280;25451;51.960;6.250;2023-08-07T01:57:46;101037.50;;;15.06;87.09
39773;BME280;25451;51.960;6.250;2023-08-07T02:00:11;101024.19;;;15.08;86.97
39773;BME280;25451;51.960;6.250;2023-08-07T02:02:37;101019.69;;;15.02;86.94
39773;BME280;25451;51.960;6.250;2023-08-07T02:05:03;101040.00;;;15.08;87.17
39773;BME280;25451;51.960;6.250;2023-08-07T02:07:29;101027.47;;;15.05;87.03
39773;BME280;25451;51.960;6.250;2023-08-07T02:09:54;101037.50;;;15.06;87.00
39773;BME280;25451;51.960;6.250;2023-08-07T02:12:19;101037.22;;;15.08;87.06
39773;BME280;25451;51.960;6.250;2023-08-07T02:14:45;101033.03;;;15.00;87.01
39773;BME280;25451;51.960;6.250;2023-08-07T02:17:10;101047.50;;;15.07;87.03
39773;BME280;25451;51.960;6.250;2023-08-07T02:19:35;101045.56;;;15.08;87.07
39773;BME280;25451;51.960;6.250;2023-08-07T02:22:01;101038.88;;;15.04;87.12
39773;BME280;25451;51.960;6.250;2023-08-07T02:24:27;101060.31;;;15.08;87.20
39773;BME280;25451;51.960;6.250;2023-08-07T02:26:52;101051.94;;;15.03;87.15
39773;BME280;25451;51.960;6.250;2023-08-07T02:29:17;101067.81;;;15.08;87.05
39773;BME280;25451;51.960;6.250;2023-08-07T02:31:43;101064.19;;;15.07;87.07
39773;BME280;25451;51.960;6.250;2023-08-07T02:34:08;101077.84;;;15.09;87.12
39773;BME280;25451;51.960;6.250;2023-08-07T02:36:33;101071.72;;;15.07;86.76
39773;BME280;25451;51.960;6.250;2023-08-07T02:38:59;101065.31;;;15.06;87.07
39773;BME280;25451;51.960;6.250;2023-08-07T02:41:24;101052.72;;;14.98;87.21
39773;BME280;25451;51.960;6.250;2023-08-07T02:43:49;101069.47;;;15.04;87.10
39773;BME280;25451;51.960;6.250;2023-08-07T02:46:15;101063.91;;;15.04;87.09
39773;BME280;25451;51.960;6.250;2023-08-07T02:48:40;101066.09;;;15.02;87.30
39773;BME280;25451;51.960;6.250;2023-08-07T02:51:05;101065.00;;;15.03;87.07
39773;BME280;25451;51.960;6.250;2023-08-07T02:53:31;101046.34;;;14.98;86.85
39773;BME280;25451;51.960;6.250;2023-08-07T02:55:56;101058.84;;;15.01;86.97
39773;BME280;25451;51.960;6.250;2023-08-07T02:58:22;101040.78;;;14.98;87.12
39773;BME280;25451;51.960;6.250;2023-08-07T03:00:47;101052.47;;;15.00;87.10
39773;BME280;25451;51.960;6.250;2023-08-07T03:03:12;101056.63;;;14.98;87.03
39773;BME280;25451;51.960;6.250;2023-08-07T03:05:38;101045.50;;;14.98;87.12
39773;BME280;25451;51.960;6.250;2023-08-07T03:08:03;101048.81;;;14.94;87.16
39773;BME280;25451;51.960;6.250;2023-08-07T03:10:28;101058.84;;;14.95;87.08
39773;BME280;25451;51.960;6.250;2023-08-07T03:12:54;101053.56;;;14.94;87.17
39773;BME280;25451;51.960;6.250;2023-08-07T03:15:19;101055.78;;;14.97;87.11
39773;BME280;25451;51.960;6.250;2023-08-07T03:17:45;101058.84;;;14.95;87.18
39773;BME280;25451;51.960;6.250;2023-08-07T03:20:10;101058.84;;;14.95;87.13
39773;BME280;25451;51.960;6.250;2023-08-07T03:22:36;101045.75;;;14.91;87.14
39773;BME280;25451;51.960;6.250;2023-08-07T03:25:01;101047.16;;;14.93;87.16
39773;BME280;25451;51.960;6.250;2023-08-07T03:27:26;101048.25;;;14.92;87.17
39773;BME280;25451;51.960;6.250;2023-08-07T03:29:52;101045.47;;;14.92;87.13
39773;BME280;25451;51.960;6.250;2023-08-07T03:32:18;101039.09;;;14.92;87.33
39773;BME280;25451;51.960;6.250;2023-08-07T03:34:43;101032.97;;;14.90;87.13
39773;BME280;25451;51.960;6.250;2023-08-07T03:37:09;101031.31;;;14.94;87.06
39773;BME280;25451;51.960;6.250;2023-08-07T03:39:34;101029.91;;;14.91;87.24
39773;BME280;25451;51.960;6.250;2023-08-07T03:41:59;101035.75;;;14.95;87.13
39773;BME280;25451;51.960;6.250;2023-08-07T03:44:24;101023.78;;;14.94;87.14
39773;BME280;25451;51.960;6.250;2023-08-07T03:46:50;101029.84;;;14.86;87.18
39773;BME280;25451;51.960;6.250;2023-08-07T03:49:16;101041.59;;;14.93;87.11
39773;BME280;25451;51.960;6.250;2023-08-07T03:51:42;101035.47;;;14.91;87.27
39773;BME280;25451;51.960;6.250;2023-08-07T03:54:07;101022.13;;;14.93;87.24
39773;BME280;25451;51.960;6.250;2023-08-07T03:56:32;101032.41;;;14.93;87.12
39773;BME280;25451;51.960;6.250;2023-08-07T03:59:01;101014.31;;;14.90;87.12
39773;BME280;25451;51.960;6.250;2023-08-07T04:01:27;101017.66;;;14.92;87.30
39773;BME280;25451;51.960;6.250;2023-08-07T04:03:52;101033.53;;;14.92;87.29
39773;BME280;25451;51.960;6.250;2023-08-07T04:06:17;101027.41;;;14.90;87.14
39773;BME280;25451;51.960;6.250;2023-08-07T04:08:45;101020.44;;;14.92;87.21
39773;BME280;25451;51.960;6.250;2023-08-07T04:11:10;101020.44;;;14.92;87.24
39773;BME280;25451;51.960;6.250;2023-08-07T04:13:35;101014.06;;;14.92;87.15
39773;BME280;25451;51.960;6.250;2023-08-07T04:16:01;101012.94;;;14.93;87.27
39773;BME280;25451;51.960;6.250;2023-08-07T04:18:29;101007.66;;;14.91;87.29
39773;BME280;25451;51.960;6.250;2023-08-07T04:20:55;101001.28;;;14.91;87.17
39773;BME280;25451;51.960;6.250;2023-08-07T04:23:21;100976.72;;;14.73;87.22
39773;BME280;25451;51.960;6.250;2023-08-07T04:25:47;101013.19;;;14.86;87.27
39773;BME280;25451;51.960;6.250;2023-08-07T04:28:13;101024.34;;;14.91;87.18
39773;BME280;25451;51.960;6.250;2023-08-07T04:30:38;101014.06;;;14.92;87.25
39773;BME280;25451;51.960;6.250;2023-08-07T04:33:04;101019.88;;;14.90;87.42
39773;BME280;25451;51.960;6.250;2023-08-07T04:35:30;101030.75;;;14.92;87.34
39773;BME280;25451;51.960;6.250;2023-08-07T04:37:55;101030.44;;;14.88;87.23
39773;BME280;25451;51.960;6.250;2023-08-07T04:40:21;101026.56;;;14.89;87.41
39773;BME280;25451;51.960;6.250;2023-08-07T04:42:48;101024.31;;;14.86;87.53
39773;BME280;25451;51.960;6.250;2023-08-07T04:45:13;101042.13;;;14.90;87.28
39773;BME280;25451;51.960;6.250;2023-08-07T04:47:39;101046.28;;;14.88;87.19
39773;BME280;25451;51.960;6.250;2023-08-07T04:50:04;101041.53;;;14.88;87.49
39773;BME280;25451;51.960;6.250;2023-08-07T04:52:30;101047.94;;;14.89;87.28
39773;BME280;25451;51.960;6.250;2023-08-07T04:54:55;101041.53;;;14.88;87.53
39773;BME280;25451;51.960;6.250;2023-08-07T04:57:20;101044.88;;;14.85;87.54
39773;BME280;25451;51.960;6.250;2023-08-07T04:59:46;101030.69;;;14.82;87.44
39773;BME280;25451;51.960;6.250;2023-08-07T05:02:11;101043.19;;;14.84;87.50
39773;BME280;25451;51.960;6.250;2023-08-07T05:04:36;101044.59;;;14.87;87.33
39773;BME280;25451;51.960;6.250;2023-08-07T05:07:02;101051.28;;;14.91;87.45
39773;BME280;25451;51.960;6.250;2023-08-07T05:09:28;101059.34;;;14.92;87.61
39773;BME280;25451;51.960;6.250;2023-08-07T05:11:53;101067.13;;;14.90;87.58
39773;BME280;25451;51.960;6.250;2023-08-07T05:14:18;101072.75;;;14.95;87.46
39773;BME280;25451;51.960;6.250;2023-08-07T05:16:43;101068.03;;;14.96;87.87
39773;BME280;25451;51.960;6.250;2023-08-07T05:19:09;101069.09;;;14.90;87.49
39773;BME280;25451;51.960;6.250;2023-08-07T05:21:34;101073.00;;;14.94;87.52
39773;BME280;25451;51.960;6.250;2023-08-07T05:23:59;101074.16;;;14.98;87.42
39773;BME280;25451;51.960;6.250;2023-08-07T05:26:25;101069.66;;;14.92;87.59
39773;BME280;25451;51.960;6.250;2023-08-07T05:28:50;101069.38;;;14.93;87.15
39773;BME280;25451;51.960;6.250;2023-08-07T05:31:15;101067.69;;;14.92;87.32
39773;BME280;25451;51.960;6.250;2023-08-07T05:33:41;101081.09;;;15.01;87.46
39773;BME280;25451;51.960;6.250;2023-08-07T05:36:06;101087.25;;;15.03;87.56
39773;BME280;25451;51.960;6.250;2023-08-07T05:38:32;101086.13;;;15.04;87.58
39773;BME280;25451;51.960;6.250;2023-08-07T05:40:57;101087.25;;;15.03;87.54
39773;BME280;25451;51.960;6.250;2023-08-07T05:43:22;101097.53;;;15.07;87.57
39773;BME280;25451;51.960;6.250;2023-08-07T05:45:48;101085.28;;;15.03;87.52
39773;BME280;25451;51.960;6.250;2023-08-07T05:48:14;101086.69;;;15.06;87.54
39773;BME280;25451;51.960;6.250;2023-08-07T05:50:41;101092.25;;;15.06;87.63
39773;BME280;25451;51.960;6.250;2023-08-07T05:53:07;101110.66;;;15.12;87.35
39773;BME280;25451;51.960;6.250;2023-08-07T05:55:32;101107.31;;;15.10;87.55
39773;BME280;25451;51.960;6.250;2023-08-07T05:57:57;101105.66;;;15.14;87.60
39773;BME280;25451;51.960;6.250;2023-08-07T06:00:23;101115.94;;;15.13;87.57
39773;BME280;25451;51.960;6.250;2023-08-07T06:02:48;101107.59;;;15.13;87.46
39773;BME280;25451;51.960;6.250;2023-08-07T06:05:13;101116.50;;;15.15;87.61
39773;BME280;25451;51.960;6.250;2023-08-07T06:07:40;101120.13;;;15.16;87.65
39773;BME280;25451;51.960;6.250;2023-08-07T06:10:05;101127.38;;;15.17;87.58
39773;BME280;25451;51.960;6.250;2023-08-07T06:12:31;101124.59;;;15.17;87.62
39773;BME280;25451;51.960;6.250;2023-08-07T06:14:56;101129.63;;;15.20;87.73
39773;BME280;25451;51.960;6.250;2023-08-07T06:17:22;101127.38;;;15.17;87.69
39773;BME280;25451;51.960;6.250;2023-08-07T06:19:47;101141.31;;;15.22;87.71
39773;BME280;25451;51.960;6.250;2023-08-07T06:22:12;101142.44;;;15.21;87.71
39773;BME280;25451;51.960;6.250;2023-08-07T06:24:38;101133.25;;;15.20;87.66
39773;BME280;25451;51.960;6.250;2023-08-07T06:27:03;101139.06;;;15.19;87.66
39773;BME280;25451;51.960;6.250;2023-08-07T06:29:29;101150.78;;;15.26;87.47
39773;BME280;25451;51.960;6.250;2023-08-07T06:31:54;101149.69;;;15.27;87.61
39773;BME280;25451;51.960;6.250;2023-08-07T06:34:19;101140.16;;;15.18;87.67
39773;BME280;25451;51.960;6.250;2023-08-07T06:36:45;101150.22;;;15.24;87.83
39773;BME280;25451;51.960;6.250;2023-08-07T06:39:10;101155.25;;;15.27;87.63
39773;BME280;25451;51.960;6.250;2023-08-07T06:41:37;101131.19;;;15.06;87.60
39773;BME280;25451;51.960;6.250;2023-08-07T06:44:03;101171.41;;;15.30;87.71
39773;BME280;25451;51.960;6.250;2023-08-07T06:46:29;101175.03;;;15.30;87.88
39773;BME280;25451;51.960;6.250;2023-08-07T06:48:54;101165.25;;;15.28;87.75
39773;BME280;25451;51.960;6.250;2023-08-07T06:51:19;101175.88;;;15.31;87.86
39773;BME280;25451;51.960;6.250;2023-08-07T06:53:45;101173.91;;;15.31;87.93
39773;BME280;25451;51.960;6.250;2023-08-07T06:56:10;101183.66;;;15.34;87.91
39773;BME280;25451;51.960;6.250;2023-08-07T06:58:35;101178.94;;;15.34;87.63
39773;BME280;25451;51.960;6.250;2023-08-07T07:01:01;101184.22;;;15.31;87.95
39773;BME280;25451;51.960;6.250;2023-08-07T07:03:26;101196.47;;;15.35;87.91
39773;BME280;25451;51.960;6.250;2023-08-07T07:05:51;101202.84;;;15.35;87.80
39773;BME280;25451;51.960;6.250;2023-08-07T07:08:17;101197.28;;;15.35;87.89
39773;BME280;25451;51.960;6.250;2023-08-07T07:10:42;101185.28;;;15.25;87.99
39773;BME280;25451;51.960;6.250;2023-08-07T07:13:07;101188.63;;;15.27;87.88
39773;BME280;25451;51.960;6.250;2023-08-07T07:15:34;101205.41;;;15.37;88.03
39773;BME280;25451;51.960;6.250;2023-08-07T07:18:01;101210.13;;;15.41;87.95
39773;BME280;25451;51.960;6.250;2023-08-07T07:20:26;101205.69;;;15.40;87.87
39773;BME280;25451;51.960;6.250;2023-08-07T07:22:52;101199.56;;;15.38;87.92
39773;BME280;25451;51.960;6.250;2023-08-07T07:25:17;101212.69;;;15.43;88.04
39773;BME280;25451;51.960;6.250;2023-08-07T07:27:43;101221.63;;;15.50;87.96
39773;BME280;25451;51.960;6.250;2023-08-07T07:30:08;101213.06;;;15.51;88.02
39773;BME280;25451;51.960;6.250;2023-08-07T07:32:34;101222.25;;;15.57;87.87
39773;BME280;25451;51.960;6.250;2023-08-07T07:35:00;101223.13;;;15.62;87.92
39773;BME280;25451;51.960;6.250;2023-08-07T07:37:25;101220.63;;;15.66;88.07
39773;BME280;25451;51.960;6.250;2023-08-07T07:39:50;101228.47;;;15.69;87.84
39773;BME280;25451;51.960;6.250;2023-08-07T07:42:16;101231.81;;;15.76;87.79
39773;BME280;25451;51.960;6.250;2023-08-07T07:44:41;101235.75;;;15.80;87.71
39773;BME280;25451;51.960;6.250;2023-08-07T07:47:07;101244.16;;;15.85;87.85
39773;BME280;25451;51.960;6.250;2023-08-07T07:49:33;101239.72;;;15.89;87.95
39773;BME280;25451;51.960;6.250;2023-08-07T07:51:59;101241.13;;;15.92;87.79
39773;BME280;25451;51.960;6.250;2023-08-07T07:54:25;101248.34;;;15.93;87.89
39773;BME280;25451;51.960;6.250;2023-08-07T07:56:50;101250.91;;;15.94;87.91
39773;BME280;25451;51.960;6.250;2023-08-07T07:59:16;101265.44;;;16.06;87.94
39773;BME280;25451;51.960;6.250;2023-08-07T08:01:41;101268.22;;;16.11;87.76
39773;BME280;25451;51.960;6.250;2023-08-07T08:04:06;101269.38;;;16.15;87.96
39773;BME280;25451;51.960;6.250;2023-08-07T08:06:32;101268.28;;;16.16;87.90
39773;BME280;25451;51.960;6.250;2023-08-07T08:08:57;101273.56;;;16.23;87.79
39773;BME280;25451;51.960;6.250;2023-08-07T08:11:22;101268.56;;;16.25;87.88
39773;BME280;25451;51.960;6.250;2023-08-07T08:13:48;101274.19;;;16.30;87.95
39773;BME280;25451;51.960;6.250;2023-08-07T08:16:14;101286.75;;;16.37;87.86
39773;BME280;25451;51.960;6.250;2023-08-07T08:18:40;101273.94;;;16.41;87.66
39773;BME280;25451;51.960;6.250;2023-08-07T08:21:05;101287.34;;;16.44;87.75
39773;BME280;25451;51.960;6.250;2023-08-07T08:23:31;101272.84;;;16.47;87.53
39773;BME280;25451;51.960;6.250;2023-08-07T08:25:57;101289.66;;;16.57;87.52
39773;BME280;25451;51.960;6.250;2023-08-07T08:28:22;101296.66;;;16.65;87.48
39773;BME280;25451;51.960;6.250;2023-08-07T08:30:48;101293.88;;;16.70;87.43
39773;BME280;25451;51.960;6.250;2023-08-07T08:33:13;101292.78;;;16.76;87.37
39773;BME280;25451;51.960;6.250;2023-08-07T08:35:39;101304.53;;;16.88;87.08
39773;BME280;25451;51.960;6.250;2023-08-07T08:38:06;101305.41;;;16.94;87.03
39773;BME280;25451;51.960;6.250;2023-08-07T08:40:31;101294.50;;;16.92;86.86
39773;BME280;25451;51.960;6.250;2023-08-07T08:43:00;101304.28;;;17.00;86.96
39773;BME280;25451;51.960;6.250;2023-08-07T08:45:26;101311.53;;;17.01;86.87
39773;BME280;25451;51.960;6.250;2023-08-07T08:47:54;101312.38;;;17.01;87.02
39773;BME280;25451;51.960;6.250;2023-08-07T08:50:20;101315.44;;;17.00;87.02
39773;BME280;25451;51.960;6.250;2023-08-07T08:52:46;101311.53;;;16.96;86.78
39773;BME280;25451;51.960;6.250;2023-08-07T08:55:12;101323.81;;;17.05;86.57
39773;BME280;25451;51.960;6.250;2023-08-07T08:57:39;101319.06;;;17.05;86.59
39773;BME280;25451;51.960;6.250;2023-08-07T09:00:09;101326.91;;;17.13;86.59
39773;BME280;25451;51.960;6.250;2023-08-07T09:02:44;101328.59;;;17.19;86.32
39773;BME280;25451;51.960;6.250;2023-08-07T09:05:09;101328.31;;;17.26;86.17
39773;BME280;25451;51.960;6.250;2023-08-07T09:07:35;101330.56;;;17.34;85.98
39773;BME280;25451;51.960;6.250;2023-08-07T09:10:02;101335.03;;;17.40;85.85
39773;BME280;25451;51.960;6.250;2023-08-07T09:12:29;101337.28;;;17.48;85.61
39773;BME280;25451;51.960;6.250;2023-08-07T09:14:57;101323.06;;;17.50;85.59
39773;BME280;25451;51.960;6.250;2023-08-07T09:17:24;101328.09;;;17.58;85.45
39773;BME280;25451;51.960;6.250;2023-08-07T09:19:52;101344.03;;;17.67;85.31
39773;BME280;25451;51.960;6.250;2023-08-07T09:22:18;101335.06;;;17.70;85.21
39773;BME280;25451;51.960;6.250;2023-08-07T09:24:44;101347.38;;;17.79;85.21
39773;BME280;25451;51.960;6.250;2023-08-07T09:27:09;101348.50;;;17.83;85.14
39773;BME280;25451;51.960;6.250;2023-08-07T09:29:35;101342.06;;;17.83;84.91
39773;BME280;25451;51.960;6.250;2023-08-07T09:32:13;101341.78;;;17.84;84.76
39773;BME280;25451;51.960;6.250;2023-08-07T09:34:39;101352.69;;;17.81;84.68
39773;BME280;25451;51.960;6.250;2023-08-07T09:37:05;101354.88;;;17.84;84.75
39773;BME280;25451;51.960;6.250;2023-08-07T09:39:30;101334.78;;;17.82;84.75
39773;BME280;25451;51.960;6.250;2023-08-07T09:41:55;101351.84;;;17.85;84.73
39773;BME280;25451;51.960;6.250;2023-08-07T09:44:21;101359.09;;;17.86;84.15
39773;BME280;25451;51.960;6.250;2023-08-07T09:46:46;101338.97;;;17.84;84.09
39773;BME280;25451;51.960;6.250;2023-08-07T09:49:12;101350.44;;;17.83;83.93
39773;BME280;25451;51.960;6.250;2023-08-07T09:51:47;101351.28;;;17.83;83.93
39773;BME280;25451;51.960;6.250;2023-08-07T09:54:13;101352.94;;;17.84;83.85
39773;BME280;25451;51.960;6.250;2023-08-07T09:56:41;101361.91;;;17.91;83.50
39773;BME280;25451;51.960;6.250;2023-08-07T09:59:08;101359.66;;;17.93;83.32
39773;BME280;25451;51.960;6.250;2023-08-07T10:01:36;101355.19;;;17.87;83.20
39773;BME280;25451;51.960;6.250;2023-08-07T10:04:02;101368.00;;;17.98;82.92
39773;BME280;25451;51.960;6.250;2023-08-07T10:06:27;101366.06;;;17.94;82.47
39773;BME280;25451;51.960;6.250;2023-08-07T10:08:54;101372.75;;;17.88;81.99
39773;BME280;25451;51.960;6.250;2023-08-07T10:11:20;101379.78;;;17.85;81.97
39773;BME280;25451;51.960;6.250;2023-08-07T10:13:47;101374.72;;;17.72;81.76
39773;BME280;25451;51.960;6.250;2023-08-07T10:16:13;101372.50;;;17.69;81.62
39773;BME280;25451;51.960;6.250;2023-08-07T10:18:39;101376.41;;;17.68;81.66
39773;BME280;25451;51.960;6.250;2023-08-07T10:21:05;101395.94;;;17.68;81.41
39773;BME280;25451;51.960;6.250;2023-08-07T10:23:35;101380.88;;;17.64;81.35
39773;BME280;25451;51.960;6.250;2023-08-07T10:26:04;101385.88;;;17.62;81.26
39773;BME280;25451;51.960;6.250;2023-08-07T10:28:33;101391.22;;;17.69;80.93
39773;BME280;25451;51.960;6.250;2023-08-07T10:31:03;101390.91;;;17.70;80.89
39773;BME280;25451;51.960;6.250;2023-08-07T10:33:30;101397.91;;;17.73;80.64
39773;BME280;25451;51.960;6.250;2023-08-07T10:35:57;101390.94;;;17.75;80.45
39773;BME280;25451;51.960;6.250;2023-08-07T10:38:25;101387.56;;;17.78;80.31
39773;BME280;25451;51.960;6.250;2023-08-07T10:41:09;101389.25;;;17.84;80.13
39773;BME280;25451;51.960;6.250;2023-08-07T10:43:42;101396.22;;;17.92;79.90
39773;BME280;25451;51.960;6.250;2023-08-07T10:46:15;101394.56;;;17.91;79.46
39773;BME280;25451;51.960;6.250;2023-08-07T10:48:44;101397.63;;;17.99;79.20
39773;BME280;25451;51.960;6.250;2023-08-07T10:51:16;101409.09;;;18.03;79.03
39773;BME280;25451;51.960;6.250;2023-08-07T10:53:43;101419.13;;;18.09;78.43
39773;BME280;25451;51.960;6.250;2023-08-07T10:56:16;101410.50;;;18.05;78.18
39773;BME280;25451;51.960;6.250;2023-08-07T10:58:42;101419.97;;;18.09;78.01
39773;BME280;25451;51.960;6.250;2023-08-07T11:02:01;101417.19;;;18.09;77.67
39773;BME280;25451;51.960;6.250;2023-08-07T11:04:14;101423.31;;;18.06;77.81
39773;BME280;25451;51.960;6.250;2023-08-07T11:06:41;101426.13;;;18.06;77.83
39773;BME280;25451;51.960;6.250;2023-08-07T11:09:08;101428.66;;;18.08;77.71
39773;BME280;25451;51.960;6.250;2023-08-07T11:11:38;101426.13;;;18.06;77.47
39773;BME280;25451;51.960;6.250;2023-08-07T11:14:11;101434.78;;;18.10;77.43
39773;BME280;25451;51.960;6.250;2023-08-07T11:16:37;101414.66;;;18.03;77.36
39773;BME280;25451;51.960;6.250;2023-08-07T11:19:03;101437.88;;;18.13;77.19
39773;BME280;25451;51.960;6.250;2023-08-07T11:21:29;101427.78;;;18.12;77.10
39773;BME280;25451;51.960;6.250;2023-08-07T11:23:55;101430.03;;;18.15;76.89
39773;BME280;25451;51.960;6.250;2023-08-07T11:26:20;101438.69;;;18.24;76.96
39773;BME280;25451;51.960;6.250;2023-08-07T11:28:47;101438.38;;;18.31;76.78
39773;BME280;25451;51.960;6.250;2023-08-07T11:31:12;101442.88;;;18.32;76.53
39773;BME280;25451;51.960;6.250;2023-08-07T11:33:38;101441.19;;;18.31;76.35
39773;BME280;25451;51.960;6.250;2023-08-07T11:36:10;101449.03;;;18.34;76.40
39773;BME280;25451;51.960;6.250;2023-08-07T11:38:40;101443.69;;;18.37;76.30
39773;BME280;25451;51.960;6.250;2023-08-07T11:41:08;101442.59;;;18.38;76.29
39773;BME280;25451;51.960;6.250;2023-08-07T11:43:34;101437.84;;;18.34;76.00
39773;BME280;25451;51.960;6.250;2023-08-07T11:46:04;101437.84;;;18.34;76.09
39773;BME280;25451;51.960;6.250;2023-08-07T11:48:31;101427.78;;;18.28;76.07
39773;BME280;25451;51.960;6.250;2023-08-07T11:50:57;101441.75;;;18.33;76.14
39773;BME280;25451;51.960;6.250;2023-08-07T11:53:30;101445.66;;;18.37;75.91
39773;BME280;25451;51.960;6.250;2023-08-07T11:55:58;101440.06;;;18.37;75.55
39773;BME280;25451;51.960;6.250;2023-08-07T11:58:25;101443.44;;;18.44;75.37
39773;BME280;25451;51.960;6.250;2023-08-07T12:00:52;101429.16;;;18.35;75.17
39773;BME280;25451;51.960;6.250;2023-08-07T12:03:28;101445.97;;;18.45;74.79
39773;BME280;25451;51.960;6.250;2023-08-07T12:05:56;101453.78;;;18.43;74.63
39773;BME280;25451;51.960;6.250;2023-08-07T12:08:22;101447.06;;;18.39;74.52
39773;BME280;25451;51.960;6.250;2023-08-07T12:10:53;101458.81;;;18.36;74.68
39773;BME280;25451;51.960;6.250;2023-08-07T12:13:23;101459.63;;;18.37;74.76
39773;BME280;25451;51.960;6.250;2023-08-07T12:15:51;101446.78;;;18.36;74.99
39773;BME280;25451;51.960;6.250;2023-08-07T12:18:18;101456.56;;;18.38;75.10
39773;BME280;25451;51.960;6.250;2023-08-07T12:20:44;101459.94;;;18.40;75.24
39773;BME280;25451;51.960;6.250;2023-08-07T12:23:16;101455.47;;;18.44;75.17
39773;BME280;25451;51.960;6.250;2023-08-07T12:25:42;101445.69;;;18.47;74.82
39773;BME280;25451;51.960;6.250;2023-08-07T12:28:07;101456.56;;;18.53;75.04
39773;BME280;25451;51.960;6.250;2023-08-07T12:30:39;101487.06;;;18.55;75.11
39773;BME280;25451;51.960;6.250;2023-08-07T12:33:04;101477.56;;;18.51;75.07
39773;BME280;25451;51.960;6.250;2023-08-07T12:35:31;101477.56;;;18.51;75.03
39773;BME280;25451;51.960;6.250;2023-08-07T12:37:56;101479.25;;;18.47;75.27
39773;BME280;25451;51.960;6.250;2023-08-07T12:40:22;101480.34;;;18.46;75.44
39773;BME280;25451;51.960;6.250;2023-08-07T12:42:49;101477.84;;;18.44;75.67
39773;BME280;25451;51.960;6.250;2023-08-07T12:45:14;101481.16;;;18.41;75.72
39773;BME280;25451;51.960;6.250;2023-08-07T12:47:41;101464.66;;;18.40;75.73
39773;BME280;25451;51.960;6.250;2023-08-07T12:50:07;101478.66;;;18.45;75.86